createdAt,value
2019-04-07T00:00:28.291Z,11.38
2019-04-07T00:03:00.219Z,11.36
2019-04-07T00:05:32.119Z,11.17
2019-04-07T00:08:03.675Z,11.02
2019-04-07T00:10:35.623Z,10.96
2019-04-07T00:13:07.192Z,11.00
2019-04-07T00:15:38.990Z,10.84
2019-04-07T00:18:10.640Z,10.88
2019-04-07T00:20:42.226Z,10.85
2019-04-07T00:23:14.815Z,10.80
2019-04-07T00:25:46.772Z,10.81
2019-04-07T00:28:19.654Z,10.86
2019-04-07T00:30:51.419Z,10.82
2019-04-07T00:33:24.024Z,10.82
2019-04-07T00:35:55.907Z,10.86
2019-04-07T00:38:27.488Z,10.93
2019-04-07T00:40:59.249Z,11.01
2019-04-07T00:43:30.684Z,11.00
2019-04-07T00:46:02.433Z,11.01
2019-04-07T00:48:34.030Z,10.87
2019-04-07T00:51:05.374Z,10.93
2019-04-07T00:53:37.529Z,10.92
2019-04-07T00:56:09.374Z,10.89
2019-04-07T00:58:40.822Z,10.95
2019-04-07T01:01:14.169Z,11.04
2019-04-07T01:03:45.732Z,11.05
2019-04-07T01:06:17.566Z,11.16
2019-04-07T01:08:50.123Z,11.12
2019-04-07T01:11:21.639Z,11.13
2019-04-07T01:13:53.951Z,11.18
2019-04-07T01:16:25.473Z,11.02
2019-04-07T01:18:57.015Z,10.92
2019-04-07T01:21:29.172Z,10.87
2019-04-07T01:24:00.738Z,10.85
2019-04-07T01:26:32.713Z,10.56
2019-04-07T01:29:04.673Z,10.58
2019-04-07T01:31:36.229Z,10.43
2019-04-07T01:34:08.196Z,10.44
2019-04-07T01:36:39.775Z,10.40
2019-04-07T01:39:12.026Z,10.44
2019-04-07T01:42:05.899Z,10.33
2019-04-07T01:44:56.131Z,10.37
2019-04-07T01:47:44.268Z,10.25
2019-04-07T01:50:37.602Z,10.34
2019-04-07T01:53:38.604Z,10.40
2019-04-07T01:56:32.609Z,10.44
2019-04-07T01:59:13.473Z,10.50
2019-04-07T02:02:07.157Z,10.46
2019-04-07T02:04:56.124Z,10.48
2019-04-07T02:07:47.375Z,10.61
2019-04-07T02:10:31.571Z,10.61
2019-04-07T02:13:27.560Z,10.54
2019-04-07T02:16:23.750Z,10.59
2019-04-07T02:19:14.220Z,10.50
2019-04-07T02:22:04.651Z,10.55
2019-04-07T02:24:49.919Z,10.60
2019-04-07T02:27:30.693Z,10.56
2019-04-07T02:30:14.367Z,10.38
2019-04-07T02:33:03.899Z,10.39
2019-04-07T02:36:21.570Z,10.30
2019-04-07T02:38:56.100Z,10.51
2019-04-07T02:41:44.814Z,10.61
2019-04-07T02:44:48.243Z,10.62
2019-04-07T02:47:31.540Z,10.59
2019-04-07T02:50:39.964Z,10.67
2019-04-07T02:53:45.510Z,10.71
2019-04-07T02:56:37.110Z,10.66
2019-04-07T02:59:25.738Z,10.49
2019-04-07T03:02:03.310Z,10.47
2019-04-07T03:04:56.955Z,10.44
2019-04-07T03:07:48.690Z,10.53
2019-04-07T03:10:31.204Z,10.31
2019-04-07T03:13:19.218Z,10.41
2019-04-07T03:16:19.238Z,10.31
2019-04-07T03:19:15.775Z,10.45
2019-04-07T03:22:06.393Z,10.31
2019-04-07T03:24:57.302Z,10.15
2019-04-07T03:27:57.852Z,10.00
2019-04-07T03:30:40.945Z,10.11
2019-04-07T03:33:40.675Z,10.17
2019-04-07T03:36:30.230Z,10.24
2019-04-07T03:39:30.138Z,10.25
2019-04-07T03:42:26.292Z,10.30
2019-04-07T03:45:20.344Z,10.24
2019-04-07T03:48:17.770Z,10.34
2019-04-07T03:51:05.349Z,10.29
2019-04-07T03:53:52.144Z,10.39
2019-04-07T03:56:37.354Z,10.38
2019-04-07T03:59:42.696Z,10.36
2019-04-07T04:02:39.146Z,10.36
2019-04-07T04:05:29.713Z,10.26
2019-04-07T04:08:19.337Z,10.42
2019-04-07T04:11:12.775Z,10.40
2019-04-07T04:14:03.056Z,10.36
2019-04-07T04:16:42.843Z,10.27
2019-04-07T04:19:14.539Z,10.18
2019-04-07T04:21:46.218Z,10.19
2019-04-07T04:24:18.509Z,10.19
2019-04-07T04:26:51.715Z,10.22
2019-04-07T04:29:24.605Z,10.00
2019-04-07T04:31:57.177Z,9.98
2019-04-07T04:34:28.929Z,9.99
2019-04-07T04:37:00.432Z,10.00
2019-04-07T04:39:31.951Z,10.16
2019-04-07T04:42:03.972Z,10.30
2019-04-07T04:44:35.942Z,10.39
2019-04-07T04:47:08.102Z,10.41
2019-04-07T04:49:40.360Z,10.27
2019-04-07T04:52:12.243Z,10.37
2019-04-07T04:54:43.893Z,10.34
2019-04-07T04:57:15.479Z,10.28
2019-04-07T04:59:46.874Z,10.25
2019-04-07T05:02:18.091Z,10.49
2019-04-07T05:04:49.742Z,10.52
2019-04-07T05:07:22.189Z,10.46
2019-04-07T05:09:55.726Z,10.57
2019-04-07T05:12:27.490Z,10.44
2019-04-07T05:14:59.209Z,10.52
2019-04-07T05:17:31.135Z,10.58
2019-04-07T05:20:02.936Z,10.74
2019-04-07T05:22:34.223Z,10.89
2019-04-07T05:25:06.999Z,10.89
2019-04-07T05:27:39.197Z,10.73
2019-04-07T05:30:11.233Z,10.66
2019-04-07T05:32:43.174Z,10.81
2019-04-07T05:35:14.936Z,10.88
2019-04-07T05:37:46.352Z,10.82
2019-04-07T05:40:17.648Z,10.98
2019-04-07T05:42:49.669Z,10.99
2019-04-07T05:45:21.482Z,11.25
2019-04-07T05:47:53.492Z,11.32
2019-04-07T05:50:27.455Z,11.13
2019-04-07T05:52:58.780Z,10.99
2019-04-07T05:55:30.502Z,11.33
2019-04-07T05:58:05.204Z,11.44
2019-04-07T06:00:35.088Z,11.44
2019-04-07T06:03:08.435Z,11.27
2019-04-07T06:05:40.141Z,11.23
2019-04-07T06:08:26.002Z,11.31
2019-04-07T06:10:45.881Z,11.43
2019-04-07T06:13:17.614Z,11.39
2019-04-07T06:15:51.944Z,11.28
2019-04-07T06:18:23.949Z,11.18
2019-04-07T06:20:56.369Z,11.18
2019-04-07T06:23:29.867Z,11.24
2019-04-07T06:26:02.010Z,11.23
2019-04-07T06:28:33.838Z,11.29
2019-04-07T06:31:06.517Z,11.30
2019-04-07T06:33:39.246Z,11.19
2019-04-07T06:36:11.506Z,11.16
2019-04-07T06:38:50.885Z,11.15
2019-04-07T06:41:17.300Z,11.23
2019-04-07T06:43:49.599Z,11.30
2019-04-07T06:46:33.231Z,11.29
2019-04-07T06:49:22.078Z,11.22
2019-04-07T06:52:02.820Z,11.32
2019-04-07T06:54:55.664Z,11.37
2019-04-07T06:57:49.183Z,11.45
2019-04-07T07:00:29.202Z,11.26
2019-04-07T07:03:35.890Z,11.33
2019-04-07T07:06:21.944Z,11.45
2019-04-07T07:09:26.559Z,11.46
2019-04-07T07:12:22.487Z,11.54
2019-04-07T07:15:20.612Z,11.66
2019-04-07T07:18:22.936Z,11.66
2019-04-07T07:21:11.089Z,11.69
2019-04-07T07:23:47.722Z,11.68
2019-04-07T07:26:16.097Z,11.71
2019-04-07T07:28:47.743Z,11.80
2019-04-07T07:31:22.844Z,11.84
2019-04-07T07:33:51.936Z,12.05
2019-04-07T07:36:23.978Z,12.14
2019-04-07T07:39:01.665Z,12.11
2019-04-07T07:41:29.253Z,12.02
2019-04-07T07:44:03.460Z,12.02
2019-04-07T07:46:33.336Z,12.23
2019-04-07T07:49:04.279Z,12.35
2019-04-07T07:51:38.428Z,12.44
2019-04-07T07:54:08.823Z,12.31
2019-04-07T07:56:42.445Z,12.26
2019-04-07T07:59:14.539Z,12.48
2019-04-07T08:01:47.045Z,12.72
2019-04-07T08:04:19.104Z,12.94
2019-04-07T08:06:50.277Z,12.82
2019-04-07T08:09:24.958Z,12.87
2019-04-07T08:11:55.352Z,12.63
2019-04-07T08:14:27.334Z,12.75
2019-04-07T08:17:02.244Z,12.72
2019-04-07T08:19:31.810Z,12.77
2019-04-07T08:22:03.139Z,12.79
2019-04-07T08:24:35.114Z,13.09
2019-04-07T08:27:06.390Z,12.97
2019-04-07T08:29:39.042Z,13.22
2019-04-07T08:32:11.084Z,13.54
2019-04-07T08:34:43.771Z,13.96
2019-04-07T08:37:15.516Z,14.17
2019-04-07T08:39:47.565Z,13.92
2019-04-07T08:42:19.748Z,14.00
2019-04-07T08:44:52.004Z,14.18
2019-04-07T08:47:23.427Z,14.30
2019-04-07T08:49:56.868Z,14.54
2019-04-07T08:52:28.178Z,14.77
2019-04-07T08:54:59.373Z,14.48
2019-04-07T08:57:32.268Z,14.61
2019-04-07T09:00:05.084Z,15.09
2019-04-07T09:02:38.213Z,15.26
2019-04-07T09:05:10.407Z,15.12
2019-04-07T09:07:42.160Z,15.60
2019-04-07T09:10:20.443Z,16.05
2019-04-07T09:12:51.157Z,16.45
2019-04-07T09:15:32.855Z,16.43
2019-04-07T09:18:12.725Z,16.43
2019-04-07T09:21:15.668Z,16.99
2019-04-07T09:24:07.111Z,17.02
2019-04-07T09:26:52.414Z,17.23
2019-04-07T09:29:43.169Z,17.10
2019-04-07T09:32:46.021Z,16.71
2019-04-07T09:35:36.221Z,16.68
2019-04-07T09:38:26.603Z,16.74
2019-04-07T09:41:07.363Z,16.38
2019-04-07T09:43:55.620Z,16.49
2019-04-07T09:46:48.348Z,16.86
2019-04-07T09:49:35.338Z,16.41
2019-04-07T09:52:23.383Z,16.81
2019-04-07T09:55:19.998Z,16.72
2019-04-07T09:58:10.838Z,16.84
2019-04-07T10:00:59.688Z,17.00
2019-04-07T10:03:49.668Z,16.60
2019-04-07T10:06:39.269Z,16.48
2019-04-07T10:09:20.332Z,16.30
2019-04-07T10:12:28.134Z,16.22
2019-04-07T10:15:15.466Z,16.48
2019-04-07T10:18:01.870Z,16.48
2019-04-07T10:20:44.693Z,16.84
2019-04-07T10:23:38.562Z,17.00
2019-04-07T10:26:39.365Z,16.88
2019-04-07T10:29:32.969Z,16.86
2019-04-07T10:32:24.760Z,16.93
2019-04-07T10:35:14.029Z,17.07
2019-04-07T10:38:02.086Z,17.63
2019-04-07T10:40:51.222Z,17.74
2019-04-07T10:43:45.166Z,18.21
2019-04-07T10:46:38.045Z,18.64
2019-04-07T10:49:37.306Z,19.03
2019-04-07T10:52:32.634Z,18.87
2019-04-07T10:55:22.618Z,18.93
2019-04-07T10:58:10.559Z,19.93
2019-04-07T11:01:16.748Z,20.34
2019-04-07T11:04:01.862Z,20.09
2019-04-07T11:06:50.052Z,20.07
2019-04-07T11:09:38.944Z,20.03
2019-04-07T11:12:32.193Z,19.94
2019-04-07T11:15:24.968Z,19.30
2019-04-07T11:18:15.152Z,19.15
2019-04-07T11:21:12.077Z,18.97
2019-04-07T11:23:54.447Z,18.71
2019-04-07T11:26:56.817Z,18.72
2019-04-07T11:29:39.641Z,18.65
2019-04-07T11:32:30.417Z,18.69
2019-04-07T11:35:09.733Z,18.53
2019-04-07T11:37:47.383Z,18.88
2019-04-07T11:40:41.503Z,18.79
2019-04-07T11:43:28.010Z,18.75
2019-04-07T11:46:11.946Z,18.50
2019-04-07T11:48:47.735Z,18.33
2019-04-07T11:51:42.491Z,17.65
2019-04-07T11:54:28.261Z,17.65
2019-04-07T11:57:31.210Z,17.89
2019-04-07T12:00:20.891Z,17.94
2019-04-07T12:03:09.596Z,17.94
2019-04-07T12:06:14.226Z,17.85
2019-04-07T12:09:06.867Z,17.86
2019-04-07T12:11:50.455Z,17.58
2019-04-07T12:14:30.815Z,17.56
2019-04-07T12:17:26.285Z,17.41
2019-04-07T12:20:33.872Z,17.41
2019-04-07T12:23:25.688Z,17.32
2019-04-07T12:26:14.115Z,17.33
2019-04-07T12:29:02.927Z,17.33
2019-04-07T12:31:52.144Z,17.33
2019-04-07T12:34:44.044Z,17.17
2019-04-07T12:37:30.787Z,17.23
2019-04-07T12:40:22.456Z,17.14
2019-04-07T12:43:15.446Z,17.12
2019-04-07T12:45:55.562Z,17.05
2019-04-07T12:48:46.940Z,17.19
2019-04-07T12:51:43.049Z,17.32
2019-04-07T12:54:23.489Z,17.34
2019-04-07T12:57:16.849Z,17.41
2019-04-07T12:59:59.607Z,17.30
2019-04-07T13:02:56.704Z,17.34
2019-04-07T13:05:49.939Z,17.27
2019-04-07T13:08:43.580Z,17.52
2019-04-07T13:11:38.654Z,17.53
2019-04-07T13:14:38.570Z,17.64
2019-04-07T13:17:17.515Z,17.59
2019-04-07T13:20:05.153Z,17.69
2019-04-07T13:22:54.892Z,17.78
2019-04-07T13:25:45.470Z,17.56
2019-04-07T13:28:35.932Z,17.56
2019-04-07T13:31:16.217Z,17.57
2019-04-07T13:34:21.301Z,17.57
2019-04-07T13:37:17.620Z,17.58
2019-04-07T13:40:15.784Z,17.71
2019-04-07T13:43:18.691Z,17.43
2019-04-07T13:46:17.638Z,17.52
2019-04-07T13:48:54.781Z,17.43
2019-04-07T13:51:47.344Z,17.31
2019-04-07T13:54:55.877Z,17.22
2019-04-07T13:57:57.726Z,17.25
2019-04-07T14:00:47.758Z,17.04
2019-04-07T14:03:35.817Z,17.04
2019-04-07T14:06:29.495Z,17.08
2019-04-07T14:09:21.169Z,17.27
2019-04-07T14:12:12.829Z,17.38
2019-04-07T14:15:02.946Z,17.38
2019-04-07T14:17:51.799Z,17.17
2019-04-07T14:20:46.423Z,17.09
2019-04-07T14:23:41.014Z,17.28
2019-04-07T14:26:31.340Z,17.14
2019-04-07T14:29:24.621Z,17.04
2019-04-07T14:32:14.154Z,17.03
2019-04-07T14:35:02.292Z,16.91
2019-04-07T14:37:49.501Z,16.90
2019-04-07T14:40:57.672Z,16.91
2019-04-07T14:43:40.893Z,17.04
2019-04-07T14:46:29.137Z,17.17
2019-04-07T14:49:27.575Z,17.04
2019-04-07T14:52:05.662Z,16.82
2019-04-07T14:54:58.003Z,16.96
2019-04-07T14:57:34.438Z,16.95
2019-04-07T15:00:20.313Z,16.73
2019-04-07T15:02:51.730Z,16.65
2019-04-07T15:05:26.292Z,16.69
2019-04-07T15:08:16.392Z,16.60
2019-04-07T15:10:51.575Z,16.47
2019-04-07T15:13:28.061Z,16.47
2019-04-07T15:15:58.366Z,16.47
2019-04-07T15:18:29.805Z,16.40
2019-04-07T15:21:01.005Z,16.33
2019-04-07T15:23:33.451Z,16.25
2019-04-07T15:26:05.998Z,16.25
2019-04-07T15:28:38.382Z,16.36
2019-04-07T15:31:09.777Z,16.36
2019-04-07T15:33:42.449Z,16.33
2019-04-07T15:36:17.534Z,16.33
2019-04-07T15:38:47.547Z,16.31
2019-04-07T15:41:19.578Z,16.31
2019-04-07T15:43:50.965Z,16.33
2019-04-07T15:46:23.596Z,16.45
2019-04-07T15:48:56.745Z,16.40
2019-04-07T15:51:28.335Z,16.31
2019-04-07T15:54:00.647Z,16.31
2019-04-07T15:56:32.571Z,16.19
2019-04-07T15:59:03.730Z,16.18
2019-04-07T16:01:38.735Z,16.08
2019-04-07T16:04:09.725Z,16.10
2019-04-07T16:06:41.936Z,16.06
2019-04-07T16:09:28.413Z,15.95
2019-04-07T16:11:49.586Z,15.95
2019-04-07T16:14:20.883Z,15.94
2019-04-07T16:16:53.427Z,15.99
2019-04-07T16:19:37.258Z,16.04
2019-04-07T16:21:58.176Z,15.94
2019-04-07T16:24:31.516Z,15.79
2019-04-07T16:27:05.437Z,15.81
2019-04-07T16:29:36.485Z,15.81
2019-04-07T16:32:08.155Z,15.83
2019-04-07T16:34:42.182Z,15.90
2019-04-07T16:37:12.297Z,15.88
2019-04-07T16:39:44.529Z,15.88
2019-04-07T16:42:16.256Z,15.90
2019-04-07T16:44:48.315Z,15.90
2019-04-07T16:47:23.815Z,15.83
2019-04-07T16:49:52.424Z,15.89
2019-04-07T16:52:23.341Z,15.89
2019-04-07T16:54:54.737Z,15.65
2019-04-07T16:57:30.957Z,15.65
2019-04-07T17:00:00.297Z,15.65
2019-04-07T17:02:31.721Z,15.51
2019-04-07T17:05:02.837Z,15.35
2019-04-07T17:07:34.232Z,15.35
2019-04-07T17:10:06.855Z,15.32
2019-04-07T17:12:40.648Z,15.27
2019-04-07T17:15:12.292Z,15.25
2019-04-07T17:17:48.591Z,15.09
2019-04-07T17:20:18.985Z,15.01
2019-04-07T17:22:51.101Z,15.00
2019-04-07T17:25:22.879Z,15.08
2019-04-07T17:27:54.027Z,15.00
2019-04-07T17:30:27.153Z,14.96
2019-04-07T17:32:59.687Z,15.08
2019-04-07T17:35:30.774Z,15.01
2019-04-07T17:38:06.659Z,15.05
2019-04-07T17:40:45.216Z,15.08
2019-04-07T17:43:47.343Z,15.02
2019-04-07T17:46:27.514Z,14.92
2019-04-07T17:49:16.665Z,14.95
2019-04-07T17:51:58.613Z,14.92
2019-04-07T17:54:54.112Z,14.85
2019-04-07T17:57:37.076Z,14.92
2019-04-07T18:00:32.154Z,15.00
2019-04-07T18:03:16.355Z,15.01
2019-04-07T18:06:10.078Z,15.06
2019-04-07T18:08:49.585Z,14.95
2019-04-07T18:11:53.459Z,14.84
2019-04-07T18:14:38.606Z,14.79
2019-04-07T18:17:28.863Z,14.67
2019-04-07T18:20:28.293Z,14.54
2019-04-07T18:23:24.064Z,14.35
2019-04-07T18:26:06.313Z,14.37
2019-04-07T18:28:58.484Z,14.23
2019-04-07T18:31:40.333Z,14.16
2019-04-07T18:34:36.556Z,14.21
2019-04-07T18:37:26.141Z,14.20
2019-04-07T18:40:21.114Z,14.26
2019-04-07T18:43:13.850Z,14.15
2019-04-07T18:46:08.669Z,14.11
2019-04-07T18:49:01.149Z,14.07
2019-04-07T18:51:50.695Z,14.07
2019-04-07T18:54:44.547Z,13.92
2019-04-07T18:57:30.574Z,13.91
2019-04-07T19:00:21.952Z,13.85
2019-04-07T19:03:18.179Z,13.81
2019-04-07T19:05:55.456Z,13.68
2019-04-07T19:08:47.079Z,13.62
2019-04-07T19:11:32.658Z,13.64
2019-04-07T19:14:38.129Z,13.55
2019-04-07T19:17:03.305Z,13.43
2019-04-07T19:19:48.458Z,13.41
2019-04-07T19:22:36.710Z,13.43
2019-04-07T19:25:46.901Z,13.47
2019-04-07T19:28:42.738Z,13.43
2019-04-07T19:31:48.020Z,13.48
2019-04-07T19:34:45.665Z,13.45
2019-04-07T19:37:26.351Z,13.47
2019-04-07T19:40:23.573Z,13.36
2019-04-07T19:43:18.297Z,13.30
2019-04-07T19:46:09.109Z,13.23
2019-04-07T19:49:18.943Z,13.06
2019-04-07T19:52:07.058Z,13.12
2019-04-07T19:55:05.878Z,13.00
2019-04-07T19:57:48.933Z,12.89
2019-04-07T20:00:45.892Z,12.84
2019-04-07T20:03:26.373Z,12.93
2019-04-07T20:06:14.854Z,12.88
2019-04-07T20:09:23.594Z,12.83
2019-04-07T20:12:21.948Z,12.89
2019-04-07T20:15:16.032Z,12.84
2019-04-07T20:18:05.278Z,12.71
2019-04-07T20:20:45.027Z,12.58
2019-04-07T20:23:50.144Z,12.65
2019-04-07T20:27:28.100Z,12.66
2019-04-07T20:30:17.589Z,12.71
2019-04-07T20:33:17.159Z,12.50
2019-04-07T20:36:06.836Z,12.58
2019-04-07T20:38:49.931Z,12.56
2019-04-07T20:41:43.631Z,12.62
2019-04-07T20:44:34.029Z,12.65
2019-04-07T20:47:28.262Z,12.64
2019-04-07T20:50:24.083Z,12.62
2019-04-07T20:53:22.865Z,12.56
2019-04-07T20:56:11.558Z,12.61
2019-04-07T20:59:05.719Z,12.66
2019-04-07T21:02:01.596Z,12.51
2019-04-07T21:04:34.330Z,12.50
2019-04-07T21:07:24.996Z,12.61
2019-04-07T21:10:07.606Z,12.57
2019-04-07T21:13:03.416Z,12.65
2019-04-07T21:15:56.239Z,12.47
2019-04-07T21:18:46.883Z,12.58
2019-04-07T21:21:39.588Z,12.57
2019-04-07T21:24:49.756Z,12.63
2019-04-07T21:27:33.723Z,12.64
2019-04-07T21:30:24.889Z,12.69
2019-04-07T21:33:02.808Z,12.73
2019-04-07T21:35:58.978Z,12.72
2019-04-07T21:38:43.323Z,12.72
2019-04-07T21:41:41.513Z,12.79
2019-04-07T21:44:38.502Z,12.70
2019-04-07T21:47:44.075Z,12.69
2019-04-07T21:50:52.001Z,12.55
2019-04-07T21:53:36.810Z,12.48
2019-04-07T21:56:15.679Z,12.49
2019-04-07T21:59:04.348Z,12.52
2019-04-07T22:01:55.074Z,12.52
2019-04-07T22:04:54.562Z,12.63
2019-04-07T22:07:33.797Z,12.56
2019-04-07T22:10:07.325Z,12.45
2019-04-07T22:12:40.764Z,12.34
2019-04-07T22:15:14.069Z,12.30
2019-04-07T22:17:45.789Z,12.32
2019-04-07T22:20:18.930Z,12.36
2019-04-07T22:22:50.239Z,12.48
2019-04-07T22:25:30.722Z,12.44
2019-04-07T22:28:01.901Z,12.51
2019-04-07T22:30:36.072Z,12.41
2019-04-07T22:33:06.159Z,12.36
2019-04-07T22:35:41.195Z,12.42
2019-04-07T22:38:10.240Z,12.45
2019-04-07T22:40:41.637Z,12.44
2019-04-07T22:43:16.689Z,12.33
2019-04-07T22:45:55.768Z,12.30
2019-04-07T22:48:18.516Z,12.37
2019-04-07T22:50:49.788Z,12.39
2019-04-07T22:53:23.229Z,12.44
2019-04-07T22:55:54.743Z,12.44
2019-04-07T22:58:25.822Z,12.32
2019-04-07T23:00:57.003Z,12.33
2019-04-07T23:03:28.067Z,12.39
2019-04-07T23:05:59.376Z,12.53
2019-04-07T23:08:30.406Z,12.50
2019-04-07T23:11:02.189Z,12.43
2019-04-07T23:13:33.179Z,12.46
2019-04-07T23:16:10.773Z,12.47
2019-04-07T23:18:38.030Z,12.34
2019-04-07T23:21:10.203Z,12.32
2019-04-07T23:23:42.036Z,12.34
2019-04-07T23:26:13.871Z,12.43
2019-04-07T23:28:45.184Z,12.53
2019-04-07T23:31:16.723Z,12.51
2019-04-07T23:33:50.147Z,12.36
2019-04-07T23:36:22.113Z,12.46
2019-04-07T23:38:53.860Z,12.53
2019-04-07T23:41:25.609Z,12.49
2019-04-07T23:43:56.838Z,12.55
2019-04-07T23:46:28.514Z,12.59
2019-04-07T23:48:59.910Z,12.49
2019-04-07T23:51:30.975Z,12.49
2019-04-07T23:54:11.311Z,12.44
2019-04-07T23:56:44.035Z,12.36
2019-04-07T23:59:15.471Z,12.30
